Time;durP1;ratioP1;P1;durP2;ratioP2;P2;SDS_P1;SDS_P2;PMS_P1;PMS_P2;Temp;Humidity;BMP_temperature;BMP_pressure;BME280_temperature;BME280_humidity;BME280_pressure;Samples;Min_cycle;Max_cycle;Signal;HPM_P1;HPM_P2
2022/06/09 00:00:05;;;;;;;2.97;1.13;;;12.70;92.60;;;;;;5053311;28;20021;-70
2022/06/09 00:02:31;;;;;;;2.10;1.30;;;12.60;92.20;;;;;;5054323;28;20025;-70
2022/06/09 00:04:58;;;;;;;4.75;1.10;;;12.60;92.10;;;;;;5054047;28;20305;-70
2022/06/09 00:07:25;;;;;;;2.00;1.00;;;12.50;92.40;;;;;;5055281;28;20056;-70
2022/06/09 00:09:58;;;;;;;4.20;1.23;;;12.50;92.20;;;;;;5054379;28;20036;-70
2022/06/09 00:12:26;;;;;;;3.53;0.90;;;12.50;91.90;;;;;;5054617;28;20040;-70
2022/06/09 00:14:54;;;;;;;3.75;1.10;;;12.50;91.30;;;;;;5052217;28;20051;-70
2022/06/09 00:17:19;;;;;;;2.20;1.08;;;12.50;91.20;;;;;;5055464;28;20021;-70
2022/06/09 00:19:45;;;;;;;2.90;1.33;;;12.50;91.40;;;;;;5054057;28;20340;-70
2022/06/09 00:22:11;;;;;;;2.13;1.08;;;12.50;90.80;;;;;;5054311;28;20026;-70
2022/06/09 00:24:36;;;;;;;2.75;1.20;;;12.60;90.90;;;;;;5053936;28;20512;-70
2022/06/09 00:27:03;;;;;;;2.47;1.20;;;12.50;91.50;;;;;;5055338;28;20421;-70
2022/06/09 00:29:29;;;;;;;2.63;1.10;;;12.60;92.00;;;;;;5053142;28;20036;-70
2022/06/09 00:31:55;;;;;;;2.00;1.10;;;12.50;91.90;;;;;;5054218;28;20025;-70
2022/06/09 00:34:20;;;;;;;4.05;1.33;;;12.50;92.00;;;;;;5054326;28;20147;-70
2022/06/09 00:36:46;;;;;;;3.08;1.17;;;12.50;92.00;;;;;;5052995;28;20048;-70
2022/06/09 00:39:12;;;;;;;2.33;1.30;;;12.50;91.50;;;;;;5053590;28;20029;-70
2022/06/09 00:41:42;;;;;;;2.65;1.30;;;12.50;91.80;;;;;;5052011;28;20434;-70
2022/06/09 00:44:18;;;;;;;1.90;1.10;;;12.50;92.00;;;;;;5055370;28;20418;-69
2022/06/09 00:46:47;;;;;;;2.42;1.20;;;12.50;91.80;;;;;;5054036;28;20417;-70
2022/06/09 00:49:27;;;;;;;4.78;1.08;;;12.50;91.60;;;;;;5058826;28;20107;-70
2022/06/09 00:51:58;;;;;;;2.63;1.20;;;12.50;91.40;;;;;;5053722;28;20017;-68
2022/06/09 00:54:36;;;;;;;2.25;1.35;;;12.50;91.50;;;;;;5055753;28;20100;-69
2022/06/09 00:57:21;;;;;;;4.32;1.85;;;12.50;91.90;;;;;;5053921;28;20025;-68
2022/06/09 00:59:50;;;;;;;4.20;1.38;;;12.50;92.20;;;;;;5056260;28;20032;-68
2022/06/09 01:02:19;;;;;;;4.28;1.60;;;12.50;91.80;;;;;;5053171;28;20025;-70
2022/06/09 01:04:48;;;;;;;3.60;1.50;;;12.50;91.60;;;;;;5054624;28;20034;-69
2022/06/09 01:07:18;;;;;;;3.72;1.40;;;12.50;90.30;;;;;;5055959;28;20032;-69
2022/06/09 01:09:44;;;;;;;4.15;1.58;;;12.40;90.10;;;;;;5054845;28;20032;-71
2022/06/09 01:12:39;;;;;;;3.42;1.52;;;12.40;90.00;;;;;;5055794;28;20033;-70
2022/06/09 01:15:20;;;;;;;4.03;1.70;;;12.30;90.00;;;;;;5047810;28;20441;-70
2022/06/09 01:18:12;;;;;;;4.65;1.90;;;12.20;88.90;;;;;;5048349;28;20325;-70
2022/06/09 01:20:51;;;;;;;3.53;1.73;;;12.20;87.90;;;;;;5049915;28;20299;-70
2022/06/09 01:23:44;;;;;;;3.58;2.05;;;12.20;87.50;;;;;;5050702;28;20305;-70
2022/06/09 01:26:21;;;;;;;3.38;1.75;;;12.20;87.20;;;;;;5049983;28;20029;-70
2022/06/09 01:29:13;;;;;;;3.55;1.85;;;12.20;87.10;;;;;;5051428;28;20033;-69
2022/06/09 01:31:52;;;;;;;4.13;1.80;;;12.20;86.80;;;;;;5056371;28;20021;-70
2022/06/09 01:34:50;;;;;;;3.65;1.75;;;12.20;86.90;;;;;;5055854;28;20136;-69
2022/06/09 01:37:27;;;;;;;4.05;1.50;;;12.20;87.00;;;;;;5053891;28;20456;-68
2022/06/09 01:39:58;;;;;;;2.58;1.30;;;12.20;86.90;;;;;;5048422;28;20051;-69
2022/06/09 01:42:28;;;;;;;2.67;1.10;;;12.10;87.70;;;;;;5050611;28;20438;-70
2022/06/09 01:44:58;;;;;;;2.83;1.30;;;12.10;88.00;;;;;;5054137;28;20066;-68
2022/06/09 01:47:29;;;;;;;3.88;1.30;;;12.10;87.80;;;;;;5055245;28;20021;-69
2022/06/09 01:49:57;;;;;;;2.97;1.40;;;12.10;87.50;;;;;;5055609;28;20418;-70
2022/06/09 01:52:25;;;;;;;3.05;1.48;;;12.10;87.30;;;;;;5055654;28;20029;-69
2022/06/09 01:54:53;;;;;;;2.50;1.30;;;12.10;87.40;;;;;;5057335;28;20138;-70
2022/06/09 01:57:26;;;;;;;4.20;1.48;;;12.10;87.40;;;;;;5053770;28;20040;-70
2022/06/09 02:00:00;;;;;;;3.15;1.60;;;12.10;87.90;;;;;;5054974;28;20033;-70
2022/06/09 02:02:32;;;;;;;2.75;1.48;;;12.10;88.00;;;;;;5053537;28;20029;-70
2022/06/09 02:05:06;;;;;;;2.20;1.38;;;12.10;88.20;;;;;;5054506;28;20107;-71
2022/06/09 02:07:37;;;;;;;2.70;1.50;;;12.10;88.20;;;;;;5054345;28;20352;-70
2022/06/09 02:10:20;;;;;;;4.15;1.70;;;12.10;87.90;;;;;;5055848;28;20029;-70
2022/06/09 02:12:48;;;;;;;4.07;1.80;;;12.10;87.30;;;;;;5055252;28;20056;-70
2022/06/09 02:15:21;;;;;;;2.97;1.60;;;12.10;87.00;;;;;;5054573;28;20435;-70
2022/06/09 02:17:49;;;;;;;3.22;1.48;;;12.10;87.30;;;;;;5052733;28;20021;-69
2022/06/09 02:20:17;;;;;;;4.38;1.40;;;12.00;87.10;;;;;;5051551;28;20495;-70
2022/06/09 02:22:43;;;;;;;4.53;1.80;;;12.00;87.00;;;;;;5051363;28;20040;-69
2022/06/09 02:25:09;;;;;;;5.25;1.60;;;11.90;86.50;;;;;;5052507;28;20021;-67
2022/06/09 02:27:35;;;;;;;5.45;1.70;;;11.90;86.30;;;;;;5049306;28;20017;-71
2022/06/09 02:30:05;;;;;;;3.30;2.00;;;11.90;85.80;;;;;;5053316;28;20110;-72
2022/06/09 02:32:32;;;;;;;5.13;1.50;;;11.90;85.80;;;;;;5057663;28;20437;-70
2022/06/09 02:34:58;;;;;;;3.85;1.92;;;11.90;85.40;;;;;;5054036;28;20047;-70
2022/06/09 02:37:24;;;;;;;4.90;2.92;;;11.80;85.80;;;;;;5047078;28;20029;-70
2022/06/09 02:39:50;;;;;;;3.17;1.40;;;11.70;85.40;;;;;;5051946;28;20029;-70
2022/06/09 02:42:15;;;;;;;3.47;1.70;;;11.80;85.30;;;;;;5045424;28;20439;-70
2022/06/09 02:44:44;;;;;;;4.82;1.63;;;11.70;85.50;;;;;;5052692;28;20021;-70
2022/06/09 02:47:10;;;;;;;2.95;1.40;;;11.70;85.30;;;;;;5049585;28;20425;-71
2022/06/09 02:49:36;;;;;;;2.40;1.38;;;11.70;85.20;;;;;;5051054;28;20029;-70
2022/06/09 02:52:02;;;;;;;2.45;1.40;;;11.80;85.00;;;;;;5053099;28;20106;-70
2022/06/09 02:54:27;;;;;;;3.17;1.50;;;11.80;84.90;;;;;;5050562;28;20039;-70
2022/06/09 02:56:53;;;;;;;4.28;1.55;;;11.80;85.00;;;;;;5051089;28;20329;-70
2022/06/09 02:59:19;;;;;;;3.90;1.80;;;11.80;85.40;;;;;;5047530;28;20021;-70
2022/06/09 03:01:47;;;;;;;3.17;1.27;;;11.80;86.00;;;;;;5053062;28;20031;-70
2022/06/09 03:04:13;;;;;;;4.90;1.60;;;11.80;86.00;;;;;;5046984;28;20032;-70
2022/06/09 03:06:39;;;;;;;2.55;1.45;;;11.80;86.00;;;;;;5046481;28;20025;-70
2022/06/09 03:09:04;;;;;;;5.20;1.67;;;11.80;86.10;;;;;;5053038;28;20377;-70
2022/06/09 03:11:30;;;;;;;3.50;1.80;;;11.80;85.80;;;;;;5054528;28;20037;-70
2022/06/09 03:13:56;;;;;;;3.83;1.80;;;11.80;86.40;;;;;;5052653;28;20032;-70
2022/06/09 03:16:22;;;;;;;3.83;1.77;;;11.80;85.90;;;;;;5042768;28;20041;-70
2022/06/09 03:18:47;;;;;;;6.18;2.03;;;11.80;85.80;;;;;;5049700;28;20580;-68
2022/06/09 03:21:14;;;;;;;6.82;1.88;;;11.80;85.40;;;;;;5053673;28;20025;-70
2022/06/09 03:23:39;;;;;;;4.93;2.22;;;11.80;85.60;;;;;;5050193;28;20358;-70
2022/06/09 03:26:06;;;;;;;5.95;2.05;;;11.70;85.30;;;;;;5045356;28;20056;-70
2022/06/09 03:28:32;;;;;;;6.10;2.50;;;11.70;85.20;;;;;;5052023;28;20095;-70
2022/06/09 03:30:59;;;;;;;5.88;2.08;;;11.70;85.00;;;;;;5053403;28;20025;-71
2022/06/09 03:33:25;;;;;;;3.95;1.77;;;11.70;85.00;;;;;;5044275;28;20017;-70
2022/06/09 03:35:51;;;;;;;4.68;1.95;;;11.60;84.90;;;;;;5048556;28;20040;-70
2022/06/09 03:38:16;;;;;;;4.80;2.00;;;11.60;84.70;;;;;;5045644;28;20032;-70
2022/06/09 03:40:42;;;;;;;4.03;1.70;;;11.60;84.80;;;;;;5038707;28;20121;-70
2022/06/09 03:43:08;;;;;;;4.57;1.85;;;11.60;84.70;;;;;;5048471;28;20116;-70
2022/06/09 03:45:34;;;;;;;5.45;2.33;;;11.60;84.40;;;;;;5044356;28;20321;-70
2022/06/09 03:48:00;;;;;;;4.15;1.77;;;11.60;84.90;;;;;;5039272;28;20479;-70
2022/06/09 03:50:28;;;;;;;7.63;3.72;;;11.70;84.80;;;;;;5052437;28;20033;-70
2022/06/09 03:52:54;;;;;;;5.18;2.10;;;11.70;84.90;;;;;;5050470;28;20025;-70
2022/06/09 03:55:21;;;;;;;6.57;2.53;;;11.70;84.80;;;;;;5052689;28;20029;-70
2022/06/09 03:57:47;;;;;;;4.35;1.80;;;11.70;84.20;;;;;;5052455;28;20410;-70
2022/06/09 04:00:19;;;;;;;3.70;1.63;;;11.80;83.80;;;;;;5050781;28;20035;-71
2022/06/09 04:02:47;;;;;;;4.15;2.10;;;11.90;84.50;;;;;;5046477;28;20013;-70
2022/06/09 04:05:13;;;;;;;4.20;2.20;;;11.80;84.90;;;;;;5044424;28;20053;-70
2022/06/09 04:07:41;;;;;;;3.95;2.20;;;11.80;85.30;;;;;;5047996;28;20033;-70
2022/06/09 04:10:08;;;;;;;6.35;2.42;;;11.80;84.80;;;;;;5044619;28;20100;-70
2022/06/09 04:12:34;;;;;;;4.32;1.80;;;11.80;84.80;;;;;;5049464;28;20035;-70
2022/06/09 04:15:01;;;;;;;5.78;2.60;;;11.90;85.20;;;;;;5050711;28;20032;-70
2022/06/09 04:17:27;;;;;;;5.75;2.47;;;11.80;86.50;;;;;;5049129;28;20025;-70
2022/06/09 04:19:53;;;;;;;4.97;2.20;;;11.80;86.40;;;;;;5057200;28;20048;-70
2022/06/09 04:22:18;;;;;;;5.18;2.60;;;11.80;87.10;;;;;;5052129;28;20025;-70
2022/06/09 04:24:44;;;;;;;5.25;2.78;;;11.90;87.20;;;;;;5054018;28;20107;-69
2022/06/09 04:27:10;;;;;;;8.50;3.35;;;11.90;87.00;;;;;;5049083;28;20025;-70
2022/06/09 04:29:36;;;;;;;6.05;3.47;;;11.90;86.70;;;;;;5055957;28;20029;-70
2022/06/09 04:32:01;;;;;;;6.60;2.85;;;11.90;86.70;;;;;;5055545;28;20409;-70
2022/06/09 04:34:27;;;;;;;5.70;2.92;;;11.90;86.80;;;;;;5053803;28;20029;-70
2022/06/09 04:36:53;;;;;;;5.85;3.40;;;11.90;86.50;;;;;;5051457;28;20035;-70
2022/06/09 04:39:18;;;;;;;6.40;3.38;;;11.80;86.70;;;;;;5053151;28;20103;-70
2022/06/09 04:41:44;;;;;;;6.22;2.60;;;11.80;86.70;;;;;;5051622;28;20055;-69
2022/06/09 04:44:09;;;;;;;5.88;2.80;;;11.80;87.90;;;;;;5049518;28;20417;-69
2022/06/09 04:46:37;;;;;;;5.53;2.80;;;11.70;87.70;;;;;;5056761;28;20029;-70
2022/06/09 04:49:03;;;;;;;8.35;3.05;;;11.70;88.00;;;;;;5050015;28;20040;-70
2022/06/09 04:51:30;;;;;;;7.43;3.15;;;11.70;87.30;;;;;;5054076;28;20029;-70
2022/06/09 04:53:57;;;;;;;6.65;2.75;;;11.70;87.00;;;;;;5049566;28;21023;-70
2022/06/09 04:56:23;;;;;;;7.22;2.97;;;11.70;87.20;;;;;;5055792;28;20454;-69
2022/06/09 04:58:50;;;;;;;8.05;2.90;;;11.70;87.00;;;;;;5052972;28;20108;-69
2022/06/09 05:01:22;;;;;;;5.45;2.70;;;11.70;86.90;;;;;;5045084;28;20067;-70
2022/06/09 05:03:51;;;;;;;6.35;2.70;;;11.70;86.80;;;;;;5053998;28;20434;-70
2022/06/09 05:06:19;;;;;;;6.63;2.88;;;11.60;87.20;;;;;;5045152;28;20040;-71
2022/06/09 05:08:46;;;;;;;7.45;2.80;;;11.60;87.80;;;;;;5050633;28;20388;-69
2022/06/09 05:11:11;;;;;;;8.25;2.60;;;11.50;87.50;;;;;;5056127;28;20056;-69
2022/06/09 05:13:37;;;;;;;8.70;3.10;;;11.50;87.90;;;;;;5046408;28;20056;-69
2022/06/09 05:16:03;;;;;;;6.60;3.28;;;11.50;87.70;;;;;;5047675;28;20029;-69
2022/06/09 05:18:31;;;;;;;6.90;3.03;;;11.50;87.10;;;;;;5048927;28;20029;-71
2022/06/09 05:20:58;;;;;;;8.95;3.00;;;11.60;86.70;;;;;;5049719;28;20025;-71
2022/06/09 05:23:24;;;;;;;9.82;3.33;;;11.70;86.50;;;;;;5048229;28;20029;-71
2022/06/09 05:25:51;;;;;;;7.10;2.92;;;11.70;86.90;;;;;;5050989;28;20418;-71
2022/06/09 05:28:19;;;;;;;7.25;3.33;;;11.80;87.30;;;;;;5043898;28;20330;-70
2022/06/09 05:30:45;;;;;;;8.20;3.15;;;11.90;87.90;;;;;;5050255;28;20440;-70
2022/06/09 05:33:11;;;;;;;5.38;2.88;;;12.00;88.90;;;;;;5056191;28;20060;-70
2022/06/09 05:35:37;;;;;;;6.97;3.55;;;12.00;89.00;;;;;;5054392;28;20319;-71
2022/06/09 05:46:16;;;;;;;8.93;3.78;;;12.20;90.50;;;;;;5052125;28;20056;-70
2022/06/09 05:48:43;;;;;;;7.95;2.83;;;12.20;90.90;;;;;;5050375;28;20414;-70
2022/06/09 05:51:10;;;;;;;9.90;3.35;;;12.30;90.10;;;;;;5052837;28;20460;-70
2022/06/09 05:53:36;;;;;;;9.68;3.10;;;12.50;91.60;;;;;;5046359;28;20037;-70
2022/06/09 05:56:04;;;;;;;6.85;3.30;;;12.70;92.00;;;;;;5054768;28;20040;-70
2022/06/09 05:58:30;;;;;;;6.72;2.80;;;12.80;94.90;;;;;;5048223;28;20317;-70
2022/06/09 06:00:55;;;;;;;7.93;2.70;;;12.80;93.80;;;;;;5050279;28;20025;-70
2022/06/09 06:03:21;;;;;;;8.05;2.65;;;13.00;94.70;;;;;;5053569;28;20091;-70
2022/06/09 06:08:31;;;;;;;7.57;2.85;;;13.10;96.30;;;;;;5050077;28;20099;-72
2022/06/09 06:10:58;;;;;;;6.57;2.40;;;13.10;96.50;;;;;;5051051;28;20048;-71
2022/06/09 06:13:25;;;;;;;8.98;2.42;;;13.20;96.90;;;;;;5049842;28;20098;-71
2022/06/09 06:15:51;;;;;;;6.53;2.17;;;13.30;98.00;;;;;;5054224;28;20025;-71
2022/06/09 06:18:16;;;;;;;7.20;3.17;;;13.40;96.60;;;;;;5050586;28;20095;-70
2022/06/09 06:20:42;;;;;;;8.20;2.72;;;13.50;97.80;;;;;;5050021;28;20021;-71
2022/06/09 06:23:08;;;;;;;7.28;2.35;;;13.60;98.00;;;;;;5047848;28;20029;-71
2022/06/09 06:25:34;;;;;;;8.07;2.20;;;13.80;98.00;;;;;;5051034;28;20091;-71
2022/06/09 06:28:00;;;;;;;5.60;2.50;;;13.90;98.00;;;;;;5053046;28;20021;-71
2022/06/09 06:30:26;;;;;;;6.97;2.13;;;13.90;98.00;;;;;;5045983;28;20041;-71
2022/06/09 06:32:51;;;;;;;6.18;2.08;;;13.90;98.00;;;;;;5048460;28;20520;-71
2022/06/09 06:35:17;;;;;;;7.15;2.72;;;13.90;98.00;;;;;;5052811;28;20029;-71
2022/06/09 06:37:43;;;;;;;9.15;2.63;;;13.90;98.00;;;;;;5053413;28;20093;-70
2022/06/09 06:40:10;;;;;;;6.45;2.45;;;14.10;98.00;;;;;;5053237;28;20036;-71
2022/06/09 06:42:36;;;;;;;6.97;2.00;;;14.10;98.00;;;;;;5046440;28;20055;-71
2022/06/09 06:45:03;;;;;;;6.30;2.33;;;14.30;98.00;;;;;;5050286;28;20053;-71
2022/06/09 06:47:28;;;;;;;10.45;2.40;;;14.40;98.00;;;;;;5054575;28;20047;-71
2022/06/09 06:49:55;;;;;;;5.85;1.80;;;14.20;98.00;;;;;;5054170;28;20021;-71
2022/06/09 06:52:21;;;;;;;6.18;1.90;;;14.10;98.00;;;;;;5054370;28;20024;-71
2022/06/09 06:54:47;;;;;;;5.70;2.10;;;14.10;98.00;;;;;;5053337;28;20029;-71
2022/06/09 06:57:12;;;;;;;7.07;1.80;;;14.00;98.00;;;;;;5043106;28;20151;-71
2022/06/09 06:59:38;;;;;;;5.45;1.70;;;14.00;98.00;;;;;;5054272;28;20037;-70
2022/06/09 07:02:04;;;;;;;6.00;2.22;;;13.90;98.00;;;;;;5055820;28;20414;-71
2022/06/09 07:04:29;;;;;;;8.40;2.05;;;14.10;98.00;;;;;;5053655;28;20040;-71
2022/06/09 07:06:56;;;;;;;8.45;2.03;;;14.20;98.00;;;;;;5055199;28;20021;-70
2022/06/09 07:09:22;;;;;;;6.60;1.80;;;14.10;97.90;;;;;;5055793;28;20032;-70
2022/06/09 07:11:48;;;;;;;8.20;2.05;;;13.80;98.00;;;;;;5055201;28;20025;-70
2022/06/09 07:14:14;;;;;;;6.07;1.90;;;13.90;98.00;;;;;;5053108;28;20061;-70
2022/06/09 07:16:40;;;;;;;7.28;2.03;;;14.10;97.70;;;;;;5052374;28;20035;-70
2022/06/09 07:19:06;;;;;;;4.30;1.50;;;14.40;96.90;;;;;;5054092;28;20029;-70
2022/06/09 07:21:32;;;;;;;6.97;2.10;;;14.40;97.30;;;;;;5052948;28;20472;-70
2022/06/09 07:23:58;;;;;;;11.00;2.00;;;15.10;96.70;;;;;;5055549;28;20329;-70
2022/06/09 07:26:24;;;;;;;8.95;1.67;;;15.60;95.80;;;;;;5054106;28;20029;-70
2022/06/09 07:28:50;;;;;;;8.02;1.60;;;15.60;94.50;;;;;;5051870;28;20108;-70
2022/06/09 07:31:16;;;;;;;7.03;1.77;;;15.40;93.40;;;;;;5054012;28;20116;-70
2022/06/09 07:33:41;;;;;;;7.82;2.00;;;15.10;93.50;;;;;;5049759;28;20064;-70
2022/06/09 07:36:18;;;;;;;4.53;1.30;;;15.30;92.90;;;;;;5051455;28;20461;-70
2022/06/09 07:38:47;;;;;;;7.20;1.65;;;15.30;92.10;;;;;;5055861;28;20025;-70
2022/06/09 07:41:12;;;;;;;7.18;1.65;;;15.60;92.10;;;;;;5055784;28;20136;-70
2022/06/09 07:43:41;;;;;;;5.10;1.45;;;15.90;90.10;;;;;;5056082;28;20100;-70
2022/06/09 07:46:07;;;;;;;6.53;1.35;;;15.70;88.70;;;;;;5052824;28;20052;-70
2022/06/09 07:48:33;;;;;;;9.88;1.83;;;16.30;89.20;;;;;;5054853;28;20074;-70
2022/06/09 07:50:59;;;;;;;6.60;1.83;;;16.20;89.70;;;;;;5055724;28;20021;-70
2022/06/09 07:53:25;;;;;;;8.70;2.20;;;15.90;90.60;;;;;;5059804;28;20082;-70
2022/06/09 07:55:53;;;;;;;7.50;1.83;;;16.00;90.90;;;;;;5058950;28;20282;-69
2022/06/09 07:58:19;;;;;;;7.93;2.10;;;16.40;89.80;;;;;;5059311;28;20322;-70
2022/06/09 08:00:46;;;;;;;7.50;2.75;;;16.00;93.00;;;;;;5060322;28;20025;-70
2022/06/09 08:03:26;;;;;;;7.75;1.80;;;16.10;93.00;;;;;;5061415;28;20024;-69
2022/06/09 08:05:52;;;;;;;10.05;3.88;;;15.30;92.50;;;;;;5061248;28;20504;-69
2022/06/09 08:08:19;;;;;;;6.18;1.65;;;16.50;91.50;;;;;;5061337;28;20041;-69
2022/06/09 08:10:46;;;;;;;5.90;1.80;;;17.00;87.20;;;;;;5058863;28;20059;-70
2022/06/09 08:13:13;;;;;;;6.88;2.35;;;17.10;87.60;;;;;;5058115;28;20181;-71
2022/06/09 08:15:40;;;;;;;7.25;2.05;;;16.30;90.80;;;;;;5054973;28;20103;-72
2022/06/09 08:18:06;;;;;;;8.43;2.00;;;16.10;91.30;;;;;;5056407;28;20033;-71
2022/06/09 08:20:34;;;;;;;8.45;1.90;;;16.50;90.60;;;;;;5061496;28;20025;-70
2022/06/09 08:23:09;;;;;;;7.03;1.70;;;16.80;88.70;;;;;;5060261;28;20318;-70
2022/06/09 08:25:37;;;;;;;6.03;2.15;;;17.20;86.30;;;;;;5059673;28;20039;-70
2022/06/09 08:28:04;;;;;;;7.57;2.65;;;17.30;87.20;;;;;;5060505;28;20112;-71
2022/06/09 08:30:30;;;;;;;6.82;1.77;;;17.60;86.70;;;;;;5060071;28;20103;-70
2022/06/09 08:32:57;;;;;;;14.32;4.05;;;17.70;85.40;;;;;;5060421;28;20058;-70
2022/06/09 08:35:24;;;;;;;9.38;2.60;;;17.20;86.40;;;;;;5057432;28;20487;-70
2022/06/09 08:37:51;;;;;;;12.00;2.80;;;16.40;89.60;;;;;;5061246;28;20409;-71
2022/06/09 08:40:23;;;;;;;9.52;3.25;;;16.10;90.40;;;;;;5057302;28;20025;-70
2022/06/09 08:43:36;;;;;;;8.13;2.67;;;15.80;90.70;;;;;;5047004;28;20206;-70
2022/06/09 08:46:40;;;;;;;10.45;2.95;;;15.60;90.70;;;;;;5050014;28;20399;-70
2022/06/09 08:49:19;;;;;;;7.57;2.88;;;16.00;88.80;;;;;;5034150;28;20120;-70
2022/06/09 08:51:48;;;;;;;7.97;2.15;;;16.90;86.10;;;;;;5044162;28;20060;-69
2022/06/09 08:54:28;;;;;;;9.10;2.72;;;17.20;85.30;;;;;;5048012;28;20025;-70
2022/06/09 08:56:54;;;;;;;4.50;1.10;;;18.50;83.00;;;;;;5042653;28;20021;-70
2022/06/09 08:59:26;;;;;;;4.07;1.33;;;19.20;79.60;;;;;;5049144;28;20033;-70
2022/06/09 09:01:57;;;;;;;5.60;1.00;;;19.70;76.20;;;;;;5060263;28;20021;-70
2022/06/09 09:04:29;;;;;;;7.65;1.30;;;18.80;75.80;;;;;;5057676;28;20061;-69
2022/06/09 09:07:10;;;;;;;6.25;1.60;;;19.20;77.20;;;;;;5056889;28;20094;-70
2022/06/09 09:09:37;;;;;;;9.15;2.13;;;19.70;75.60;;;;;;5056899;28;20409;-70
2022/06/09 09:12:18;;;;;;;5.50;1.58;;;18.30;78.60;;;;;;5056681;28;20414;-70
2022/06/09 09:14:58;;;;;;;7.70;1.60;;;17.30;80.70;;;;;;5044942;28;20028;-70
2022/06/09 09:17:38;;;;;;;8.98;1.45;;;17.00;82.50;;;;;;5045944;28;20021;-70
2022/06/09 09:20:16;;;;;;;7.93;1.45;;;18.20;81.00;;;;;;5056884;28;20029;-69
2022/06/09 09:23:08;;;;;;;5.45;1.40;;;20.10;75.60;;;;;;5048158;28;20028;-70
2022/06/09 09:26:03;;;;;;;4.60;1.20;;;20.50;73.00;;;;;;5052674;28;20064;-70
2022/06/09 09:28:32;;;;;;;5.55;1.13;;;19.00;75.70;;;;;;5056243;28;20426;-70
2022/06/09 09:31:06;;;;;;;6.53;1.00;;;17.70;76.20;;;;;;5050365;28;20032;-70
2022/06/09 09:33:32;;;;;;;4.40;1.20;;;18.50;76.90;;;;;;5045409;28;20029;-70
2022/06/09 09:36:28;;;;;;;4.78;1.00;;;20.20;72.40;;;;;;5054313;28;20033;-69
2022/06/09 09:39:19;;;;;;;6.30;1.27;;;19.70;69.90;;;;;;5055270;28;20444;-69
2022/06/09 09:41:46;;;;;;;5.07;1.55;;;19.70;72.00;;;;;;5055171;28;20052;-69
2022/06/09 09:44:22;;;;;;;4.85;1.58;;;20.00;72.30;;;;;;5055998;28;20079;-70
2022/06/09 09:46:51;;;;;;;5.07;1.65;;;20.60;69.20;;;;;;5057795;28;20368;-69
2022/06/09 09:49:44;;;;;;;3.33;1.20;;;21.00;70.90;;;;;;5055382;28;20478;-69
2022/06/09 09:52:34;;;;;;;6.68;1.48;;;20.50;70.30;;;;;;5057488;28;20032;-69
2022/06/09 09:55:00;;;;;;;5.05;1.27;;;19.60;73.30;;;;;;5057767;28;20049;-69
2022/06/09 09:57:28;;;;;;;4.68;1.10;;;18.50;75.90;;;;;;5055913;28;20118;-69
2022/06/09 09:59:56;;;;;;;4.47;1.10;;;17.80;76.60;;;;;;5036437;28;20032;-69
2022/06/09 10:08:47;;;;;;;3.50;0.85;;;20.00;69.00;;;;;;5041578;28;20040;-69
2022/06/09 10:14:38;;;;;;;3.15;0.80;;;21.60;66.20;;;;;;5036353;28;20091;-69
2022/06/09 10:17:09;;;;;;;2.53;0.80;;;22.10;61.70;;;;;;5037227;28;20048;-69
2022/06/09 10:19:35;;;;;;;4.25;1.15;;;20.60;65.10;;;;;;5053861;28;20041;-69
2022/06/09 10:22:17;;;;;;;2.75;0.85;;;20.90;65.80;;;;;;5057263;28;20025;-69
2022/06/09 10:25:00;;;;;;;2.80;0.90;;;20.90;66.00;;;;;;5057055;28;20029;-69
2022/06/09 10:27:35;;;;;;;5.78;1.25;;;20.80;66.10;;;;;;5057091;28;20078;-69
2022/06/09 10:30:18;;;;;;;3.05;0.90;;;21.00;66.40;;;;;;5047236;28;20112;-69
2022/06/09 10:32:55;;;;;;;2.72;0.85;;;20.00;68.50;;;;;;5055516;28;20036;-69
2022/06/09 10:35:48;;;;;;;4.88;0.98;;;19.20;70.80;;;;;;5037131;28;20036;-69
2022/06/09 10:38:25;;;;;;;9.70;1.40;;;18.60;73.10;;;;;;5036962;28;20025;-69
2022/06/09 10:40:57;;;;;;;8.52;1.92;;;17.90;75.30;;;;;;5036732;28;20037;-69
2022/06/09 10:43:32;;;;;;;4.47;1.33;;;17.80;77.20;;;;;;5040184;28;20021;-69
2022/06/09 10:46:26;;;;;;;6.50;1.38;;;19.10;75.60;;;;;;5055655;28;20291;-69
2022/06/09 10:55:15;;;;;;;4.28;1.10;;;19.90;71.70;;;;;;5055141;28;20116;-69
2022/06/09 10:58:04;;;;;;;7.05;1.10;;;18.90;73.50;;;;;;5055876;28;20040;-69
2022/06/09 11:00:56;;;;;;;4.93;1.20;;;18.30;76.70;;;;;;5055527;28;20033;-68
2022/06/09 11:03:35;;;;;;;4.82;1.38;;;17.90;76.50;;;;;;5056657;28;20083;-68
2022/06/09 11:06:10;;;;;;;5.78;1.50;;;16.90;78.20;;;;;;5055683;28;20440;-68
2022/06/09 11:08:43;;;;;;;4.40;1.15;;;16.10;81.30;;;;;;5056331;28;20052;-69
2022/06/09 11:11:30;;;;;;;5.03;1.40;;;15.60;81.70;;;;;;5056283;28;20058;-70
2022/06/09 11:14:29;;;;;;;4.22;1.20;;;15.30;82.40;;;;;;5055279;28;20079;-69
2022/06/09 11:16:55;;;;;;;3.70;1.20;;;15.20;83.10;;;;;;5055277;28;20417;-69
2022/06/09 11:20:09;;;;;;;4.88;1.20;;;15.40;82.70;;;;;;5055301;28;20096;-69
2022/06/09 11:22:40;;;;;;;5.50;1.20;;;15.60;82.20;;;;;;5054023;28;20043;-69
2022/06/09 11:25:24;;;;;;;3.83;1.10;;;15.50;82.20;;;;;;5056053;28;20021;-69
2022/06/09 11:28:10;;;;;;;4.07;1.00;;;15.80;81.40;;;;;;5055555;28;20099;-69
2022/06/09 11:30:58;;;;;;;5.78;1.45;;;15.80;81.20;;;;;;5055044;28;20413;-69
2022/06/09 11:33:36;;;;;;;4.50;0.80;;;16.10;80.30;;;;;;5055036;28;20045;-69
2022/06/09 11:36:17;;;;;;;4.13;1.00;;;16.20;79.40;;;;;;5055949;28;20059;-69
2022/06/09 11:39:06;;;;;;;3.78;0.90;;;16.40;77.70;;;;;;5055788;28;20022;-69
2022/06/09 11:41:43;;;;;;;5.93;1.25;;;16.80;78.10;;;;;;5055826;28;20366;-69
2022/06/09 11:44:26;;;;;;;2.38;0.90;;;17.60;76.70;;;;;;5054819;28;20032;-69
2022/06/09 11:46:55;;;;;;;2.50;0.90;;;17.60;75.40;;;;;;5055813;28;20055;-69
2022/06/09 11:49:37;;;;;;;2.80;0.90;;;17.60;75.20;;;;;;5054930;28;20550;-69
2022/06/09 11:52:41;;;;;;;4.45;1.40;;;17.50;75.50;;;;;;5055802;28;20112;-69
2022/06/09 11:55:27;;;;;;;3.25;1.13;;;17.30;75.10;;;;;;5064493;28;20429;-69
2022/06/09 11:57:54;;;;;;;9.27;1.30;;;17.40;76.60;;;;;;5036080;28;20033;-69
2022/06/09 12:00:21;;;;;;;2.65;1.15;;;17.50;76.40;;;;;;5034592;28;20030;-69
2022/06/09 12:02:50;;;;;;;3.20;1.00;;;17.80;75.80;;;;;;5035855;28;20029;-69
2022/06/09 12:05:23;;;;;;;3.13;1.00;;;18.10;73.40;;;;;;5034851;28;20426;-69
2022/06/09 12:08:31;;;;;;;5.93;1.30;;;18.20;74.90;;;;;;5034605;28;20113;-69
2022/06/09 12:11:26;;;;;;;3.65;1.10;;;18.10;74.20;;;;;;5043298;28;20034;-69
2022/06/09 12:13:54;;;;;;;;;;;17.70;75.10;;;;;;5054910;28;20041;-69
2022/06/09 12:16:30;;;;;;;4.38;1.23;;;17.70;76.40;;;;;;5055771;28;19905;-69
2022/06/09 12:19:14;;;;;;;6.00;1.30;;;17.60;77.40;;;;;;5055601;28;20111;-69
2022/06/09 12:21:44;;;;;;;4.50;1.30;;;17.40;78.30;;;;;;5055630;28;20017;-69
2022/06/09 12:24:25;;;;;;;5.00;1.23;;;17.90;78.20;;;;;;5055377;28;20025;-69
2022/06/09 12:27:03;;;;;;;6.43;1.70;;;18.30;77.60;;;;;;5053857;28;20421;-69
2022/06/09 12:29:35;;;;;;;7.10;1.50;;;18.30;75.80;;;;;;5054394;28;20072;-69
2022/06/09 12:32:09;;;;;;;6.47;1.50;;;17.90;77.60;;;;;;5055461;28;20057;-69
2022/06/09 12:34:50;;;;;;;5.07;1.38;;;17.30;79.40;;;;;;5055366;28;20414;-69
2022/06/09 12:37:28;;;;;;;5.32;1.50;;;17.40;78.80;;;;;;5055599;28;20032;-69
2022/06/09 12:40:02;;;;;;;4.35;1.48;;;17.50;79.50;;;;;;5057060;28;20478;-69
2022/06/09 12:42:48;;;;;;;6.00;1.70;;;18.10;78.10;;;;;;5058318;28;20037;-69
2022/06/09 12:45:34;;;;;;;3.13;1.20;;;19.20;76.30;;;;;;5057795;28;20047;-69
2022/06/09 12:48:02;;;;;;;6.68;1.50;;;20.00;75.00;;;;;;5059319;28;20336;-69
2022/06/09 12:50:33;;;;;;;5.38;1.55;;;20.80;73.30;;;;;;5058967;28;20039;-69
2022/06/09 12:53:00;;;;;;;5.47;1.60;;;21.20;72.00;;;;;;5058991;28;20091;-70
2022/06/09 12:55:28;;;;;;;7.28;1.50;;;20.70;73.10;;;;;;5057948;28;20031;-69
2022/06/09 12:58:14;;;;;;;3.45;1.52;;;19.30;76.40;;;;;;5057477;28;20032;-69
2022/06/09 13:00:47;;;;;;;4.57;1.25;;;17.50;77.50;;;;;;5057760;28;20096;-69
2022/06/09 13:03:24;;;;;;;5.35;1.48;;;17.00;81.00;;;;;;5058884;28;20017;-69
2022/06/09 13:05:50;;;;;;;3.47;1.25;;;16.80;83.70;;;;;;5057570;28;20432;-69
2022/06/09 13:08:21;;;;;;;4.63;1.73;;;15.90;88.50;;;;;;5058669;28;20022;-69
2022/06/09 13:11:07;;;;;;;5.95;1.95;;;15.30;92.60;;;;;;5058625;28;20060;-69
2022/06/09 13:13:44;;;;;;;4.32;1.38;;;15.50;92.70;;;;;;5057844;28;20032;-69
2022/06/09 13:16:19;;;;;;;4.05;1.50;;;15.70;93.60;;;;;;5057226;28;20025;-69
2022/06/09 13:18:52;;;;;;;4.45;1.00;;;15.80;90.60;;;;;;5058544;28;20025;-69
2022/06/09 13:21:19;;;;;;;5.88;1.33;;;15.70;86.30;;;;;;5056595;28;20105;-69
2022/06/09 13:23:48;;;;;;;4.45;1.30;;;15.70;86.60;;;;;;5055936;28;20025;-69
2022/06/09 13:26:24;;;;;;;7.90;1.70;;;15.80;87.80;;;;;;5057458;28;20317;-69
2022/06/09 13:28:54;;;;;;;4.22;1.20;;;16.20;87.10;;;;;;5057974;28;20029;-69
2022/06/09 13:31:26;;;;;;;5.93;1.25;;;16.50;84.60;;;;;;5058277;28;20029;-69
2022/06/09 13:34:16;;;;;;;5.90;1.30;;;16.90;83.30;;;;;;5058363;28;20029;-69
2022/06/09 13:36:43;;;;;;;4.55;1.30;;;17.10;83.60;;;;;;5058217;28;20031;-69